Time;durP1;ratioP1;P1;durP2;ratioP2;P2;SDS_P1;SDS_P2;PMS_P1;PMS_P2;Temp;Humidity;BMP_temperature;BMP_pressure;BME280_temperature;BME280_humidity;BME280_pressure;Samples;Min_cycle;Max_cycle;Signal;HPM_P1;HPM_P2
2023/09/10 00:01:40;;;;;;;11.40;10.25;;;21.50;82.00;;;;;;4994801;28;20039;-63
2023/09/10 00:04:05;;;;;;;10.73;9.73;;;21.40;82.20;;;;;;5010363;28;20045;-63
2023/09/10 00:06:32;;;;;;;10.82;9.80;;;21.40;82.70;;;;;;4993949;28;20117;-63
2023/09/10 00:08:58;;;;;;;12.70;10.70;;;21.40;82.60;;;;;;4995290;28;20088;-63
2023/09/10 00:11:25;;;;;;;11.45;10.35;;;21.30;82.90;;;;;;4995719;28;20030;-65
2023/09/10 00:13:50;;;;;;;11.10;10.10;;;21.30;83.10;;;;;;4995965;28;20092;-63
2023/09/10 00:16:16;;;;;;;11.27;10.18;;;21.20;83.10;;;;;;4996901;28;20030;-63
2023/09/10 00:18:41;;;;;;;10.95;9.70;;;21.20;83.10;;;;;;4995486;28;20038;-62
2023/09/10 00:21:07;;;;;;;11.05;10.05;;;21.10;83.30;;;;;;4997183;28;20034;-63
2023/09/10 00:23:32;;;;;;;11.00;9.90;;;21.10;83.40;;;;;;4991434;28;20109;-64
2023/09/10 00:25:58;;;;;;;10.68;9.63;;;21.10;83.60;;;;;;4996113;28;20038;-62
2023/09/10 00:28:23;;;;;;;10.32;9.32;;;21.00;83.70;;;;;;4993589;28;20117;-64
2023/09/10 00:30:53;;;;;;;10.70;9.63;;;21.00;83.80;;;;;;4996383;28;20060;-63
2023/09/10 00:33:19;;;;;;;11.15;10.15;;;20.90;84.10;;;;;;4997539;28;20044;-63
2023/09/10 00:35:44;;;;;;;14.02;10.05;;;20.90;84.10;;;;;;4994978;28;20038;-62
2023/09/10 00:38:10;;;;;;;13.10;10.45;;;20.80;84.10;;;;;;4996447;28;20502;-63
2023/09/10 00:40:35;;;;;;;10.60;9.57;;;20.80;84.30;;;;;;4994464;28;20029;-63
2023/09/10 00:43:01;;;;;;;12.27;10.63;;;20.80;84.50;;;;;;4994909;28;20130;-63
2023/09/10 00:45:27;;;;;;;11.35;10.05;;;20.80;84.70;;;;;;4994456;28;20046;-63
2023/09/10 00:47:53;;;;;;;10.48;9.48;;;20.70;84.70;;;;;;4994414;28;20046;-65
2023/09/10 00:50:20;;;;;;;10.80;9.82;;;20.70;85.00;;;;;;4995916;28;20705;-62
2023/09/10 00:52:49;;;;;;;11.25;10.18;;;20.70;85.10;;;;;;4993179;28;20128;-62
2023/09/10 00:55:16;;;;;;;11.05;9.82;;;20.70;85.20;;;;;;4996102;28;20505;-63
2023/09/10 00:57:43;;;;;;;11.40;10.40;;;20.60;85.10;;;;;;4995866;28;20030;-63
2023/09/10 01:00:09;;;;;;;10.93;9.90;;;20.60;85.10;;;;;;4993971;28;20022;-63
2023/09/10 01:02:35;;;;;;;11.43;10.32;;;20.60;85.10;;;;;;4997891;28;20733;-63
2023/09/10 01:05:01;;;;;;;11.52;10.32;;;20.60;85.10;;;;;;4996275;28;20229;-64
2023/09/10 01:07:27;;;;;;;11.13;10.02;;;20.60;85.20;;;;;;4991723;28;20476;-62
2023/09/10 01:09:52;;;;;;;11.15;10.05;;;20.50;85.20;;;;;;4996003;28;20058;-63
2023/09/10 01:12:46;;;;;;;11.45;10.35;;;20.50;85.20;;;;;;4992016;28;20293;-63
2023/09/10 01:15:27;;;;;;;11.75;10.30;;;20.40;85.70;;;;;;4994969;28;20046;-63
2023/09/10 01:18:11;;;;;;;10.88;9.45;;;20.40;85.70;;;;;;4996855;28;20038;-63
2023/09/10 01:21:04;;;;;;;11.15;9.98;;;20.50;85.40;;;;;;4996210;28;20095;-63
2023/09/10 01:24:02;;;;;;;11.75;10.52;;;20.50;85.80;;;;;;4998842;28;20034;-64
2023/09/10 01:26:28;;;;;;;10.88;9.75;;;20.40;85.70;;;;;;4998127;28;20041;-62
2023/09/10 01:28:53;;;;;;;10.98;9.88;;;20.40;85.00;;;;;;4999176;28;20137;-63
2023/09/10 01:31:19;;;;;;;11.57;10.38;;;20.40;85.00;;;;;;4995161;28;20068;-63
2023/09/10 01:33:51;;;;;;;10.68;9.75;;;20.40;85.00;;;;;;4996656;28;20066;-62
2023/09/10 01:36:41;;;;;;;10.77;9.60;;;20.40;85.10;;;;;;4994065;28;20069;-62
2023/09/10 01:39:29;;;;;;;10.73;9.70;;;20.30;85.60;;;;;;4994152;28;20109;-63
2023/09/10 01:41:56;;;;;;;11.35;10.25;;;20.30;85.50;;;;;;4992981;28;20034;-63
2023/09/10 01:44:23;;;;;;;10.63;9.57;;;20.30;84.80;;;;;;4994214;28;20057;-63
2023/09/10 01:46:50;;;;;;;11.10;9.98;;;20.30;85.40;;;;;;4995485;28;20038;-63
2023/09/10 01:49:17;;;;;;;11.63;10.48;;;20.30;85.00;;;;;;4992069;28;20125;-64
2023/09/10 01:51:42;;;;;;;12.13;10.15;;;20.20;84.90;;;;;;4995025;28;20034;-63
2023/09/10 01:54:08;;;;;;;10.95;9.90;;;20.20;84.90;;;;;;4993249;28;20041;-63
2023/09/10 01:56:33;;;;;;;10.93;9.93;;;20.30;85.00;;;;;;4997055;28;20348;-63
2023/09/10 01:58:59;;;;;;;11.70;10.15;;;20.20;84.80;;;;;;4994089;28;20084;-63
2023/09/10 02:01:24;;;;;;;12.63;10.43;;;20.20;84.80;;;;;;4993807;28;20045;-63
2023/09/10 02:03:50;;;;;;;12.13;10.23;;;20.20;84.80;;;;;;4994029;28;20678;-63
2023/09/10 02:06:15;;;;;;;12.18;10.73;;;20.10;84.80;;;;;;4993893;28;20054;-63
2023/09/10 02:08:41;;;;;;;12.93;10.48;;;20.10;84.80;;;;;;5003480;28;20044;-63
2023/09/10 02:11:07;;;;;;;13.57;10.55;;;20.00;84.80;;;;;;4995732;28;20590;-63
2023/09/10 02:13:33;;;;;;;11.10;10.00;;;20.00;84.80;;;;;;4994178;28;20031;-64
2023/09/10 02:15:58;;;;;;;11.77;10.57;;;20.00;84.80;;;;;;4995530;28;20037;-63
2023/09/10 02:18:25;;;;;;;11.65;9.98;;;20.00;85.00;;;;;;4995545;28;20034;-62
2023/09/10 02:20:51;;;;;;;11.25;10.15;;;20.00;85.00;;;;;;4995307;28;20037;-62
2023/09/10 02:23:16;;;;;;;11.57;10.05;;;19.90;85.00;;;;;;4992189;28;20030;-63
2023/09/10 02:25:42;;;;;;;10.95;9.95;;;19.90;85.00;;;;;;4993284;28;20121;-63
2023/09/10 02:28:08;;;;;;;11.70;10.43;;;19.90;85.00;;;;;;4992398;28;20104;-63
2023/09/10 02:30:34;;;;;;;11.52;10.23;;;19.90;85.00;;;;;;4993218;28;20041;-63
2023/09/10 02:32:59;;;;;;;11.55;10.35;;;19.90;85.00;;;;;;4993582;28;20029;-62
2023/09/10 02:35:25;;;;;;;10.75;9.75;;;19.80;85.00;;;;;;4995742;28;20565;-63
2023/09/10 02:37:50;;;;;;;11.35;10.20;;;19.80;84.90;;;;;;4992297;28;20034;-63
2023/09/10 02:40:16;;;;;;;11.00;9.73;;;19.80;85.00;;;;;;4993525;28;20037;-62
2023/09/10 02:42:42;;;;;;;10.85;9.77;;;19.80;84.90;;;;;;4992700;28;20038;-63
2023/09/10 02:45:08;;;;;;;11.40;10.20;;;19.80;85.00;;;;;;4994624;28;20096;-62
2023/09/10 02:47:33;;;;;;;10.98;9.90;;;19.70;84.90;;;;;;4994416;28;20576;-63
2023/09/10 02:49:59;;;;;;;10.98;9.88;;;19.70;85.00;;;;;;4994790;28;20034;-62
2023/09/10 02:52:26;;;;;;;11.60;10.40;;;19.70;85.00;;;;;;4992392;28;20201;-64
2023/09/10 02:54:51;;;;;;;10.93;9.82;;;19.70;85.10;;;;;;4993953;28;20053;-61
2023/09/10 02:57:17;;;;;;;10.43;9.43;;;19.60;85.00;;;;;;4995412;28;20034;-63
2023/09/10 02:59:43;;;;;;;10.50;9.43;;;19.60;85.00;;;;;;4994525;28;20107;-63
2023/09/10 03:02:08;;;;;;;10.90;9.80;;;19.50;85.00;;;;;;4993370;28;20535;-62
2023/09/10 03:04:34;;;;;;;10.90;9.80;;;19.50;85.10;;;;;;4993974;28;20063;-62
2023/09/10 03:07:01;;;;;;;10.70;9.65;;;19.50;85.20;;;;;;4995321;28;20041;-62
2023/09/10 03:09:27;;;;;;;11.25;10.15;;;19.50;85.20;;;;;;4993349;28;20026;-63
2023/09/10 03:11:52;;;;;;;11.43;9.73;;;19.40;85.20;;;;;;4992132;28;20039;-62
2023/09/10 03:14:18;;;;;;;10.82;9.73;;;19.40;85.20;;;;;;4992624;28;20542;-63
2023/09/10 03:16:43;;;;;;;10.82;9.73;;;19.40;86.00;;;;;;4994137;28;20080;-63
2023/09/10 03:19:09;;;;;;;11.43;10.40;;;19.40;85.20;;;;;;4996328;28;20125;-62
2023/09/10 03:21:38;;;;;;;10.82;9.82;;;19.30;85.30;;;;;;4994607;28;20053;-62
2023/09/10 03:24:04;;;;;;;10.63;9.45;;;19.30;85.70;;;;;;4992019;28;20037;-63
2023/09/10 03:26:30;;;;;;;10.02;9.10;;;19.30;85.50;;;;;;4991661;28;20061;-63
2023/09/10 03:28:55;;;;;;;15.75;10.63;;;19.20;85.50;;;;;;4991402;28;20584;-63
2023/09/10 03:31:21;;;;;;;10.90;9.80;;;19.20;85.70;;;;;;4993850;28;20077;-63
2023/09/10 03:33:48;;;;;;;13.80;10.98;;;19.20;86.00;;;;;;4992258;28;20049;-63
2023/09/10 03:36:14;;;;;;;12.50;9.63;;;19.10;86.30;;;;;;4994378;28;20501;-61
2023/09/10 03:38:39;;;;;;;11.40;9.90;;;19.10;86.40;;;;;;4993272;28;20121;-63
2023/09/10 03:41:05;;;;;;;10.60;9.45;;;19.10;86.40;;;;;;4993775;28;20036;-62
2023/09/10 03:43:31;;;;;;;12.27;10.15;;;19.10;86.50;;;;;;4992294;28;20113;-62
2023/09/10 03:45:56;;;;;;;10.95;9.93;;;19.10;86.40;;;;;;4992098;28;20049;-64
2023/09/10 03:48:22;;;;;;;11.05;9.95;;;19.10;86.30;;;;;;4996756;28;20432;-63
2023/09/10 03:50:48;;;;;;;11.30;10.23;;;19.00;86.40;;;;;;4996263;28;20038;-62
2023/09/10 03:53:14;;;;;;;11.32;10.13;;;19.00;86.40;;;;;;4995604;28;20046;-62
2023/09/10 03:55:40;;;;;;;10.60;9.60;;;19.00;86.40;;;;;;4996692;28;20042;-63
2023/09/10 03:58:06;;;;;;;11.10;9.95;;;19.00;86.40;;;;;;4996664;28;20050;-63
2023/09/10 04:00:33;;;;;;;10.50;9.50;;;19.00;86.40;;;;;;4996299;28;20126;-63
2023/09/10 04:02:58;;;;;;;10.30;9.30;;;19.00;86.50;;;;;;4995707;28;20045;-63
2023/09/10 04:05:24;;;;;;;11.07;9.32;;;18.90;86.20;;;;;;4998055;28;20037;-63
2023/09/10 04:07:49;;;;;;;9.80;8.85;;;19.00;86.30;;;;;;4998644;28;20038;-63
2023/09/10 04:10:15;;;;;;;10.40;9.32;;;18.90;86.20;;;;;;4996204;28;20499;-62
2023/09/10 04:12:41;;;;;;;10.27;9.32;;;18.90;86.10;;;;;;4995006;28;20414;-63
2023/09/10 04:15:07;;;;;;;10.32;9.30;;;18.90;86.00;;;;;;4996052;28;20034;-63
2023/09/10 04:17:32;;;;;;;13.60;9.70;;;18.90;86.00;;;;;;4995448;28;20402;-63
2023/09/10 04:19:58;;;;;;;9.98;8.98;;;18.90;86.00;;;;;;4997143;28;20064;-63
2023/09/10 04:22:24;;;;;;;10.30;9.30;;;18.90;86.00;;;;;;4995142;28;20417;-62
2023/09/10 04:24:50;;;;;;;12.88;9.70;;;19.00;86.00;;;;;;4994963;28;20502;-61
2023/09/10 04:27:16;;;;;;;11.73;10.05;;;18.90;86.00;;;;;;4995351;28;20054;-63
2023/09/10 04:29:41;;;;;;;11.23;10.00;;;18.90;86.00;;;;;;4994890;28;20038;-62
2023/09/10 04:32:07;;;;;;;11.80;9.88;;;18.90;86.00;;;;;;4995083;28;20428;-63
2023/09/10 04:34:33;;;;;;;11.45;9.75;;;18.90;86.00;;;;;;4993488;28;20045;-63
2023/09/10 04:36:58;;;;;;;10.88;9.77;;;18.80;86.00;;;;;;4996680;28;20441;-62
2023/09/10 04:39:24;;;;;;;11.52;10.32;;;18.80;86.20;;;;;;4995245;28;20061;-63
2023/09/10 04:41:50;;;;;;;11.30;10.10;;;18.70;86.40;;;;;;4995934;28;20510;-61
2023/09/10 04:44:16;;;;;;;12.07;10.68;;;18.70;86.40;;;;;;4992493;28;20512;-62
2023/09/10 04:46:41;;;;;;;11.60;10.32;;;18.70;86.50;;;;;;4995035;28;20598;-63
2023/09/10 04:49:07;;;;;;;11.70;10.40;;;18.70;86.60;;;;;;4994286;28;20052;-62
2023/09/10 04:51:33;;;;;;;11.30;10.15;;;18.70;87.00;;;;;;4995093;28;20045;-63
2023/09/10 04:53:58;;;;;;;14.75;11.82;;;18.70;86.80;;;;;;4993045;28;20046;-62
2023/09/10 04:56:24;;;;;;;13.40;11.18;;;18.70;87.00;;;;;;4994163;28;20034;-61
2023/09/10 04:58:50;;;;;;;11.68;10.48;;;18.60;87.10;;;;;;4994052;28;20035;-62
2023/09/10 05:01:15;;;;;;;11.65;10.45;;;18.60;87.10;;;;;;4997371;28;20061;-63
2023/09/10 05:03:41;;;;;;;12.23;10.88;;;18.60;87.10;;;;;;4995981;28;20034;-62
2023/09/10 05:06:07;;;;;;;12.35;10.85;;;18.60;87.10;;;;;;4995390;28;20441;-63
2023/09/10 05:08:34;;;;;;;11.95;10.75;;;18.60;87.20;;;;;;4995483;28;20112;-63
2023/09/10 05:11:00;;;;;;;12.15;10.07;;;18.60;87.20;;;;;;4992981;28;20505;-63
2023/09/10 05:13:26;;;;;;;12.00;10.70;;;18.60;87.10;;;;;;4993511;28;20453;-63
2023/09/10 05:15:54;;;;;;;12.15;10.32;;;18.60;87.30;;;;;;4996537;28;20026;-63
2023/09/10 05:18:21;;;;;;;11.20;9.93;;;18.60;87.30;;;;;;4995716;28;20026;-63
2023/09/10 05:20:48;;;;;;;13.07;10.88;;;18.60;87.30;;;;;;4995802;28;20049;-62
2023/09/10 05:23:14;;;;;;;13.60;11.18;;;18.60;87.40;;;;;;4995891;28;20095;-63
2023/09/10 05:25:39;;;;;;;12.23;11.02;;;18.60;87.40;;;;;;4995908;28;20038;-63
2023/09/10 05:28:05;;;;;;;13.90;11.32;;;18.60;87.50;;;;;;4995050;28;20117;-63
2023/09/10 05:30:31;;;;;;;12.77;11.43;;;18.60;87.60;;;;;;4996064;28;20033;-63
2023/09/10 05:32:57;;;;;;;13.68;11.10;;;18.60;87.70;;;;;;4996762;28;20038;-62
2023/09/10 05:35:23;;;;;;;11.50;10.45;;;18.60;87.60;;;;;;4995556;28;20042;-62
2023/09/10 05:37:49;;;;;;;12.18;10.55;;;18.60;87.80;;;;;;4996261;28;20040;-64
2023/09/10 05:40:14;;;;;;;14.32;10.73;;;18.60;87.90;;;;;;4993897;28;20064;-62
2023/09/10 05:42:40;;;;;;;11.95;10.73;;;18.60;88.00;;;;;;4996352;28;20289;-62
2023/09/10 05:45:06;;;;;;;12.15;9.82;;;18.70;88.00;;;;;;4997724;28;20033;-62
2023/09/10 05:47:32;;;;;;;12.27;10.95;;;18.70;88.10;;;;;;4992942;28;20516;-62
2023/09/10 05:49:59;;;;;;;15.85;12.52;;;18.70;88.20;;;;;;4994848;28;20031;-62
2023/09/10 05:52:24;;;;;;;12.98;11.70;;;18.70;88.30;;;;;;4995077;28;20138;-62
2023/09/10 05:54:50;;;;;;;12.95;11.65;;;18.80;88.40;;;;;;4996221;28;20034;-62
2023/09/10 05:57:16;;;;;;;11.32;10.27;;;18.70;88.30;;;;;;4995717;28;20034;-62
2023/09/10 05:59:41;;;;;;;13.45;12.02;;;18.80;88.30;;;;;;4993436;28;21556;-63
2023/09/10 06:02:07;;;;;;;12.55;11.27;;;18.80;88.50;;;;;;4995571;28;20533;-63
2023/09/10 06:04:33;;;;;;;15.35;12.60;;;18.90;88.70;;;;;;4994122;28;20103;-63
2023/09/10 06:07:00;;;;;;;15.65;12.48;;;18.90;88.80;;;;;;4994253;28;20092;-63
2023/09/10 06:09:26;;;;;;;12.75;11.38;;;18.90;89.00;;;;;;4994900;28;20033;-63
2023/09/10 06:11:51;;;;;;;13.18;11.85;;;18.90;88.90;;;;;;4993615;28;20026;-63
2023/09/10 06:14:17;;;;;;;14.10;12.63;;;19.00;89.00;;;;;;4995101;28;20041;-64
2023/09/10 06:16:43;;;;;;;13.80;12.40;;;19.00;89.20;;;;;;4995072;28;20038;-62
2023/09/10 06:19:08;;;;;;;14.20;12.75;;;19.00;89.30;;;;;;4992821;28;20053;-63
2023/09/10 06:21:35;;;;;;;15.02;13.38;;;19.10;89.50;;;;;;4994651;28;20502;-63
2023/09/10 06:24:00;;;;;;;14.90;13.40;;;19.10;89.50;;;;;;4994379;28;20033;-63
2023/09/10 06:26:26;;;;;;;15.35;13.75;;;19.20;89.70;;;;;;4993693;28;20034;-62
2023/09/10 06:28:51;;;;;;;16.13;14.32;;;19.20;89.90;;;;;;4994917;28;20034;-62
2023/09/10 06:31:17;;;;;;;15.02;13.52;;;19.30;90.40;;;;;;4993988;28;20033;-63
2023/09/10 06:33:42;;;;;;;17.15;13.93;;;19.30;90.00;;;;;;4994116;28;20077;-62
2023/09/10 06:36:08;;;;;;;15.10;13.52;;;19.30;90.00;;;;;;4991869;28;20053;-61
2023/09/10 06:38:34;;;;;;;17.13;14.18;;;19.40;90.00;;;;;;4993312;28;20027;-62
2023/09/10 06:40:59;;;;;;;17.88;15.45;;;19.50;90.10;;;;;;4994098;28;20248;-62
2023/09/10 06:43:25;;;;;;;18.50;16.08;;;19.50;90.10;;;;;;4994547;28;20045;-63
2023/09/10 06:45:51;;;;;;;20.48;17.83;;;19.60;90.20;;;;;;4993183;28;20046;-62
2023/09/10 06:48:17;;;;;;;19.50;17.50;;;19.60;90.20;;;;;;4994901;28;20038;-62
2023/09/10 06:50:44;;;;;;;19.52;17.45;;;19.70;90.20;;;;;;4992719;28;20046;-63
2023/09/10 06:53:09;;;;;;;19.67;17.15;;;19.80;90.20;;;;;;4994967;28;20041;-62
2023/09/10 06:55:35;;;;;;;19.40;17.42;;;19.90;90.20;;;;;;4994668;28;20026;-62
2023/09/10 06:58:00;;;;;;;20.30;16.98;;;19.90;90.10;;;;;;4995254;28;20034;-62
2023/09/10 07:00:26;;;;;;;18.77;16.77;;;20.00;90.00;;;;;;4995922;28;20041;-63
2023/09/10 07:02:52;;;;;;;19.38;16.90;;;20.10;90.00;;;;;;4992827;28;20033;-62
2023/09/10 07:05:17;;;;;;;19.65;17.00;;;20.20;90.00;;;;;;4998065;28;20121;-63
2023/09/10 07:07:43;;;;;;;21.70;17.25;;;20.20;90.00;;;;;;4992798;28;20038;-63
2023/09/10 07:10:10;;;;;;;18.83;16.83;;;20.30;90.00;;;;;;4994046;28;20044;-62
2023/09/10 07:12:35;;;;;;;20.88;17.77;;;20.30;90.00;;;;;;4986409;28;20034;-64
2023/09/10 07:15:02;;;;;;;18.23;16.27;;;20.40;90.20;;;;;;4988523;28;20038;-62
2023/09/10 07:17:27;;;;;;;17.52;15.73;;;20.50;90.20;;;;;;4985119;28;20046;-63
2023/09/10 07:19:53;;;;;;;18.15;16.25;;;20.60;90.20;;;;;;4985033;28;20041;-62
2023/09/10 07:22:19;;;;;;;19.20;16.20;;;20.60;90.20;;;;;;4985355;28;20457;-63
2023/09/10 07:24:44;;;;;;;19.02;16.90;;;20.80;90.20;;;;;;5004460;28;20034;-62
2023/09/10 07:27:10;;;;;;;17.52;15.43;;;20.90;90.20;;;;;;4992623;28;20603;-61
2023/09/10 07:29:35;;;;;;;18.17;15.60;;;20.90;90.10;;;;;;4985253;28;20617;-63
2023/09/10 07:32:01;;;;;;;18.45;15.75;;;21.00;90.00;;;;;;4985398;28;20107;-63
2023/09/10 07:34:26;;;;;;;18.73;15.75;;;21.10;89.80;;;;;;4986239;28;20038;-64
2023/09/10 07:36:52;;;;;;;16.98;15.27;;;21.20;89.50;;;;;;4988318;28;20038;-64
2023/09/10 07:39:22;;;;;;;18.70;16.55;;;21.30;89.50;;;;;;4995817;28;20035;-62
2023/09/10 07:41:47;;;;;;;18.08;15.52;;;21.30;89.30;;;;;;4996830;28;20036;-62
2023/09/10 07:44:13;;;;;;;20.05;17.63;;;21.40;89.10;;;;;;4999517;28;20037;-64
2023/09/10 07:46:38;;;;;;;18.38;16.52;;;21.50;88.90;;;;;;4993920;28;20426;-64
2023/09/10 07:49:04;;;;;;;18.65;16.48;;;21.60;88.90;;;;;;4986625;28;20372;-65
2023/09/10 07:51:30;;;;;;;18.60;16.60;;;21.70;88.80;;;;;;4987706;28;20037;-62
2023/09/10 07:53:56;;;;;;;18.05;16.17;;;21.80;88.70;;;;;;4989574;28;20034;-65
2023/09/10 07:56:22;;;;;;;18.63;16.63;;;21.80;88.50;;;;;;4989899;28;20430;-63
2023/09/10 07:58:47;;;;;;;20.60;17.67;;;21.90;88.50;;;;;;4988680;28;20038;-65
2023/09/10 08:01:13;;;;;;;19.58;17.00;;;21.90;88.30;;;;;;4986004;28;20042;-62
2023/09/10 08:03:41;;;;;;;19.05;17.05;;;22.00;88.00;;;;;;4988701;28;20053;-63
2023/09/10 08:06:06;;;;;;;21.95;17.05;;;22.10;87.70;;;;;;4988479;28;20053;-63
2023/09/10 08:08:32;;;;;;;20.65;17.77;;;22.10;87.60;;;;;;4989051;28;20426;-63
2023/09/10 08:10:57;;;;;;;19.60;17.60;;;22.20;87.60;;;;;;4984871;28;20121;-63
2023/09/10 08:13:23;;;;;;;21.45;16.70;;;22.20;87.40;;;;;;4988762;28;20045;-63
2023/09/10 08:15:49;;;;;;;19.10;17.10;;;22.30;87.30;;;;;;4986931;28;20537;-63
2023/09/10 08:18:16;;;;;;;20.23;17.13;;;22.40;87.40;;;;;;4984640;28;20030;-63
2023/09/10 08:20:42;;;;;;;18.90;16.83;;;22.40;87.50;;;;;;4990119;28;20044;-62
2023/09/10 08:23:09;;;;;;;19.02;17.05;;;22.50;87.40;;;;;;4988901;28;20096;-64
2023/09/10 08:25:35;;;;;;;20.33;17.80;;;22.60;87.50;;;;;;4990025;28;20564;-64
2023/09/10 08:28:00;;;;;;;20.38;18.27;;;22.70;87.40;;;;;;4988568;28;20044;-63
2023/09/10 08:30:27;;;;;;;19.23;16.52;;;22.80;87.40;;;;;;4988232;28;20042;-62
2023/09/10 08:32:53;;;;;;;23.52;18.05;;;22.80;87.10;;;;;;4987227;28;20034;-63
2023/09/10 08:35:19;;;;;;;19.25;17.17;;;23.00;86.80;;;;;;4989028;28;20374;-63
2023/09/10 08:37:45;;;;;;;19.00;17.02;;;23.00;86.70;;;;;;4987890;28;20038;-63
2023/09/10 08:40:11;;;;;;;19.85;17.05;;;23.30;86.70;;;;;;4989818;28;20038;-61
2023/09/10 08:43:05;;;;;;;18.98;16.95;;;23.20;86.60;;;;;;4991917;28;20045;-63
2023/09/10 08:45:31;;;;;;;17.77;15.82;;;23.30;86.50;;;;;;4994174;28;20038;-62
2023/09/10 08:48:00;;;;;;;18.05;16.25;;;23.40;86.50;;;;;;4996788;28;20027;-64
2023/09/10 08:50:26;;;;;;;19.70;17.67;;;23.50;87.40;;;;;;4996532;28;20373;-62
2023/09/10 08:52:53;;;;;;;22.88;17.10;;;23.60;86.60;;;;;;4997544;28;20034;-62
2023/09/10 08:55:19;;;;;;;16.83;15.13;;;23.80;86.30;;;;;;4999447;28;20072;-61
2023/09/10 08:57:45;;;;;;;18.15;15.35;;;23.90;86.10;;;;;;4999812;28;20069;-63
2023/09/10 09:00:12;;;;;;;17.48;15.68;;;24.00;85.90;;;;;;4999107;28;20720;-62
2023/09/10 09:02:43;;;;;;;16.95;15.15;;;24.10;85.20;;;;;;4998640;28;20046;-62
2023/09/10 09:05:09;;;;;;;16.75;15.00;;;24.20;84.80;;;;;;4998303;28;20038;-62
2023/09/10 09:07:55;;;;;;;19.63;15.38;;;24.30;84.80;;;;;;4999779;28;20031;-63
2023/09/10 09:10:26;;;;;;;15.93;14.38;;;24.40;83.60;;;;;;4997602;28;20519;-63
2023/09/10 09:12:56;;;;;;;16.33;14.63;;;24.50;84.10;;;;;;4998153;28;20030;-65
2023/09/10 09:15:22;;;;;;;15.98;14.38;;;24.60;83.60;;;;;;4998003;28;20100;-63
2023/09/10 09:17:50;;;;;;;16.05;14.40;;;24.70;83.40;;;;;;4997051;28;20034;-62
2023/09/10 09:20:17;;;;;;;17.13;13.88;;;24.80;83.10;;;;;;4995969;28;20034;-63
2023/09/10 09:22:47;;;;;;;15.02;13.52;;;24.80;82.90;;;;;;4996902;28;20088;-63
2023/09/10 09:25:13;;;;;;;15.88;14.30;;;24.90;82.90;;;;;;4997410;28;20507;-63
2023/09/10 09:27:40;;;;;;;16.35;14.43;;;25.00;82.70;;;;;;4999498;28;20053;-62
2023/09/10 09:30:07;;;;;;;16.83;15.05;;;25.10;82.50;;;;;;4997558;28;20502;-64
2023/09/10 09:32:35;;;;;;;16.45;14.77;;;25.20;82.10;;;;;;4999040;28;20380;-64
2023/09/10 09:35:00;;;;;;;17.17;15.38;;;25.20;82.10;;;;;;4998413;28;20120;-64
2023/09/10 09:37:26;;;;;;;17.73;15.02;;;25.30;82.20;;;;;;4998507;28;20054;-64
2023/09/10 09:39:51;;;;;;;15.32;13.82;;;25.40;82.20;;;;;;4998003;28;20045;-63
2023/09/10 09:42:17;;;;;;;14.77;13.27;;;25.50;81.90;;;;;;4998654;28;20279;-64
2023/09/10 09:44:44;;;;;;;14.15;12.75;;;25.60;81.70;;;;;;4998005;28;20540;-65
2023/09/10 09:47:13;;;;;;;14.07;12.77;;;25.70;81.50;;;;;;4998087;28;20036;-64
2023/09/10 09:49:46;;;;;;;14.43;12.95;;;25.80;81.20;;;;;;4997303;28;20036;-63
2023/09/10 09:52:12;;;;;;;12.80;11.50;;;25.90;80.30;;;;;;4999444;28;20509;-63
2023/09/10 09:54:39;;;;;;;13.50;12.10;;;26.00;80.90;;;;;;4998165;28;20045;-63
2023/09/10 09:57:05;;;;;;;13.85;12.38;;;26.10;81.00;;;;;;4999745;28;20165;-63
2023/09/10 09:59:38;;;;;;;13.15;11.95;;;26.20;81.10;;;;;;4996109;28;20493;-63
2023/09/10 10:02:04;;;;;;;13.25;11.82;;;26.30;79.70;;;;;;4997946;28;20034;-64
2023/09/10 10:04:33;;;;;;;13.10;11.50;;;26.40;79.80;;;;;;4997779;28;20179;-63
2023/09/10 10:07:01;;;;;;;12.40;11.25;;;26.50;79.10;;;;;;4997436;28;20092;-66
2023/09/10 10:09:37;;;;;;;12.95;11.68;;;26.60;79.10;;;;;;4998336;28;20061;-62
2023/09/10 10:12:08;;;;;;;12.00;10.73;;;26.70;78.20;;;;;;4995903;28;20038;-63
2023/09/10 10:14:37;;;;;;;12.65;11.35;;;26.80;77.90;;;;;;4996499;28;20095;-62
2023/09/10 10:17:05;;;;;;;10.95;9.85;;;26.80;77.90;;;;;;4996180;28;20475;-63
2023/09/10 10:19:32;;;;;;;11.32;10.23;;;26.90;77.60;;;;;;4997791;28;20038;-65
2023/09/10 10:21:59;;;;;;;10.98;9.88;;;27.00;77.20;;;;;;4997770;28;20038;-64
2023/09/10 10:24:25;;;;;;;11.18;10.07;;;27.10;77.00;;;;;;4995676;28;20038;-63
2023/09/10 10:26:52;;;;;;;13.27;11.98;;;27.20;76.40;;;;;;4998296;28;20108;-63
2023/09/10 10:29:19;;;;;;;13.18;11.95;;;27.30;76.00;;;;;;4998042;28;20083;-63
2023/09/10 10:31:50;;;;;;;11.52;10.43;;;27.40;75.50;;;;;;4997491;28;20041;-62
2023/09/10 10:34:21;;;;;;;12.50;10.65;;;27.40;75.60;;;;;;4998125;28;20045;-65
2023/09/10 10:37:15;;;;;;;10.45;9.45;;;27.50;75.10;;;;;;4997808;28;20394;-64
2023/09/10 10:39:56;;;;;;;11.43;9.60;;;27.60;74.40;;;;;;4996677;28;20050;-63
2023/09/10 10:42:35;;;;;;;12.10;9.90;;;27.70;74.90;;;;;;4997115;28;20036;-63
2023/09/10 10:45:07;;;;;;;10.48;8.63;;;27.70;74.00;;;;;;4995962;28;20022;-64
2023/09/10 10:47:40;;;;;;;9.27;8.48;;;27.80;74.40;;;;;;4998948;28;20026;-63
2023/09/10 10:50:09;;;;;;;9.68;8.82;;;27.90;73.90;;;;;;4998333;28;20035;-63
2023/09/10 10:52:40;;;;;;;9.18;8.27;;;28.00;73.90;;;;;;4997158;28;20038;-63
2023/09/10 10:55:06;;;;;;;8.52;7.78;;;28.10;73.70;;;;;;4997397;28;20444;-64
2023/09/10 10:57:32;;;;;;;9.23;8.43;;;28.10;73.50;;;;;;4999023;28;20032;-63
2023/09/10 10:59:59;;;;;;;8.25;7.45;;;28.20;73.00;;;;;;5002244;28;20034;-64
2023/09/10 11:02:24;;;;;;;11.00;8.27;;;28.30;72.70;;;;;;5000657;28;20045;-64
2023/09/10 11:05:08;;;;;;;8.10;7.32;;;28.40;72.50;;;;;;5001393;28;20030;-64
2023/09/10 11:07:34;;;;;;;8.63;7.72;;;28.50;71.60;;;;;;5001359;28;20557;-65
2023/09/10 11:10:26;;;;;;;8.70;7.25;;;28.50;71.80;;;;;;4998617;28;20057;-63
2023/09/10 11:13:09;;;;;;;8.07;7.38;;;28.60;70.70;;;;;;4997263;28;20057;-66
2023/09/10 11:15:35;;;;;;;7.75;7.15;;;28.70;70.20;;;;;;5000416;28;20402;-63
2023/09/10 11:18:35;;;;;;;7.28;6.68;;;28.70;70.50;;;;;;5000746;28;20571;-64
2023/09/10 11:21:19;;;;;;;7.45;6.88;;;28.80;68.10;;;;;;5000990;28;20041;-63
2023/09/10 11:23:56;;;;;;;10.45;6.65;;;28.90;69.40;;;;;;5000267;28;20038;-62
2023/09/10 11:26:22;;;;;;;7.28;6.53;;;28.90;67.90;;;;;;5000131;28;20030;-65
2023/09/10 11:28:53;;;;;;;8.00;7.20;;;28.90;68.20;;;;;;4999349;28;20033;-63
2023/09/10 11:31:41;;;;;;;7.82;7.03;;;28.90;67.20;;;;;;5002036;28;20048;-63
2023/09/10 11:34:27;;;;;;;7.75;7.13;;;28.90;66.80;;;;;;5001730;28;20366;-63
2023/09/10 11:37:03;;;;;;;7.53;6.68;;;29.00;67.30;;;;;;5000387;28;20405;-63
2023/09/10 11:39:30;;;;;;;7.57;6.88;;;28.90;67.50;;;;;;5001035;28;20044;-63
2023/09/10 11:41:58;;;;;;;7.13;6.53;;;28.90;67.70;;;;;;4998392;28;20068;-63
2023/09/10 11:44:24;;;;;;;7.43;6.72;;;28.90;67.20;;;;;;4997174;28;20042;-63
2023/09/10 11:46:53;;;;;;;7.85;7.15;;;28.90;67.20;;;;;;4997853;28;20099;-62
2023/09/10 11:49:21;;;;;;;7.90;7.22;;;28.90;67.10;;;;;;5000931;28;20030;-63
2023/09/10 11:51:48;;;;;;;7.78;6.95;;;28.90;66.90;;;;;;5000402;28;20584;-64
2023/09/10 11:54:18;;;;;;;7.10;6.50;;;28.90;67.20;;;;;;5000239;28;20038;-63
2023/09/10 11:56:52;;;;;;;7.65;6.95;;;28.90;66.80;;;;;;5000244;28;20033;-63
2023/09/10 11:59:19;;;;;;;6.97;6.38;;;28.90;66.50;;;;;;4999109;28;20034;-63
2023/09/10 12:01:46;;;;;;;7.22;6.38;;;28.90;67.10;;;;;;4997413;28;20494;-65
2023/09/10 12:04:13;;;;;;;7.68;7.07;;;29.00;66.30;;;;;;4999113;28;20041;-64
2023/09/10 12:06:39;;;;;;;7.07;6.45;;;29.00;66.30;;;;;;4998230;28;20046;-66
2023/09/10 12:09:05;;;;;;;7.40;6.80;;;29.00;66.60;;;;;;4997910;28;20319;-63
2023/09/10 12:11:32;;;;;;;7.28;6.57;;;29.10;66.20;;;;;;5000437;28;20046;-63
2023/09/10 12:13:58;;;;;;;6.88;6.28;;;29.20;66.30;;;;;;5000050;28;20050;-65
2023/09/10 12:16:24;;;;;;;6.55;5.95;;;29.20;65.60;;;;;;5000828;28;20058;-64
2023/09/10 12:18:50;;;;;;;6.63;6.13;;;29.20;64.80;;;;;;4997205;28;20120;-65
2023/09/10 12:21:18;;;;;;;7.03;6.40;;;29.20;65.00;;;;;;4999462;28;20058;-64
2023/09/10 12:23:43;;;;;;;6.57;5.88;;;29.30;65.10;;;;;;4998959;28;20038;-64
2023/09/10 12:26:09;;;;;;;7.38;6.45;;;29.30;64.60;;;;;;4999784;28;20038;-66
2023/09/10 12:28:35;;;;;;;6.70;6.10;;;29.30;64.60;;;;;;4997807;28;20124;-64
2023/09/10 12:31:02;;;;;;;6.32;5.82;;;29.40;63.60;;;;;;4997004;28;20060;-64
2023/09/10 12:33:28;;;;;;;6.53;6.03;;;29.40;63.80;;;;;;4999151;28;20125;-63
2023/09/10 12:35:55;;;;;;;6.00;5.50;;;29.50;64.50;;;;;;5000010;28;20142;-64